Filer City, MI (49634)

3:48 PM EDT on April 28, 2015 (GMT -0400)
MesoWest | | Change Station
CLOSE
Current Station
Personal Weather Station
Location: Filer City, MI
Elevation: 659 ft
Nearby Weather Stations

Elev 659 ft 44.22 °N, 86.31 °W | Updated 33 minutes ago

Clear
Clear
51 °F
Feels Like 51 °F
N
14
Wind Variable Wind from NNW
Gusts 18.0 mph

Today
High -- | Low -- °F
--% Chance of Precip.
Yesterday
High -- | Low -- °F
Precip. -- in
6:41 AM 8:45 PM
Waxing Gibbous, 76% visible
Pressure 30.08 in
Visibility 10.0 miles
Clouds Clear
Dew Point 34 °F
Humidity 52%
Rainfall in
Snow Depth Not available.
UV 8 out of 12
Pollen 10.00 out of 12
Air Quality Not available.
Flu Activity Regional
METAR KMBL 281935Z AUTO 34012KT 10SM CLR 12/01 A3008 RMK AO1

More Conditions Fewer Conditions

Pressure 30.08 in
Visibility 10.0 miles
Clouds Clear
Dew Point 34 °F
Humidity 52%
Rainfall in
Snow Depth Not available.
UV 8 out of 12
Pollen 10.00 out of 12
Air Quality Not available.
Flu Activity Regional
METAR KMBL 281935Z AUTO 34012KT 10SM CLR 12/01 A3008 RMK AO1

More Conditions Fewer Conditions

Nowcast | as of 2:00 PM EDT on April 28, 2015

At 3 PM...mostly clear. Temperature 50. Northwest winds 9 mph. At 5 PM...mostly clear. Temperature 51. Northwest winds 9 mph. At 7 PM...mostly clear. Temperature 49. Northwest winds 7 mph. At 9 PM...mostly clear. Temperature 46. Northwest winds 5 mph.

×

10-Day Weather Forecast

Almanac

Astronomy

Apr. 28, 2015 Rise Set
Actual Time
Civil Twilight
Nautical Twilight
Astronomical Twilight
Moon
Length of Visible Light
Length of Day
Tomorrow will be .
, % of the Moon is Illuminated

Today's Extremes

State Highs State Lows

Community

WunderPhotos

Upload Photos

1,817,741 photos uploaded!

WunderBlogs® & News

Nearby

Air Quality

  Air Quality AQ Index Pollutant
Not available.

Snow Depth

Station Depth Elevation

Earthquake Activity

City Distance Mag. Time & Date
Minimum magnitude displayed is 2.5.

Coastal Water Temperatures

Place Temperature

Stations

Nearby Weather Stations

Station Location Temp. Windchill Dew Point Humidity Wind Precip. Elev Updated Type